sensor_id;sensor_type;location;lat;lon;timestamp;pressure;altitude;pressure_sealevel;temperature;humidity
38630;BME280;24384;51.988;4.644;2023-04-09T00:02:06;102665.72;;;10.36;85.11
38630;BME280;24384;51.988;4.644;2023-04-09T00:04:33;102666.59;;;10.32;83.15
38630;BME280;24384;51.988;4.644;2023-04-09T00:06:58;102662.22;;;10.38;83.11
38630;BME280;24384;51.988;4.644;2023-04-09T00:09:23;102663.09;;;10.36;83.04
38630;BME280;24384;51.988;4.644;2023-04-09T00:11:48;102655.16;;;10.44;82.33
38630;BME280;24384;51.988;4.644;2023-04-09T00:14:14;102655.16;;;10.28;81.95
38630;BME280;24384;51.988;4.644;2023-04-09T00:16:39;102653.44;;;10.29;81.39
38630;BME280;24384;51.988;4.644;2023-04-09T00:19:05;102654.31;;;10.25;81.51
38630;BME280;24384;51.988;4.644;2023-04-09T00:21:30;102657.84;;;10.13;81.78
38630;BME280;24384;51.988;4.644;2023-04-09T00:23:56;102652.56;;;10.16;81.40
38630;BME280;24384;51.988;4.644;2023-04-09T00:26:21;102645.50;;;10.29;82.48
38630;BME280;24384;51.988;4.644;2023-04-09T00:28:46;102650.81;;;10.21;82.68
38630;BME280;24384;51.988;4.644;2023-04-09T00:31:12;102649.91;;;10.25;80.62
38630;BME280;24384;51.988;4.644;2023-04-09T00:33:37;102649.91;;;10.25;81.06
38630;BME280;24384;51.988;4.644;2023-04-09T00:36:05;102648.16;;;10.24;80.22
38630;BME280;24384;51.988;4.644;2023-04-09T00:38:30;102654.31;;;10.26;80.50
38630;BME280;24384;51.988;4.644;2023-04-09T00:40:55;102639.38;;;10.11;80.78
38630;BME280;24384;51.988;4.644;2023-04-09T00:43:21;102639.38;;;10.17;80.72
38630;BME280;24384;51.988;4.644;2023-04-09T00:45:46;102647.31;;;10.11;82.02
38630;BME280;24384;51.988;4.644;2023-04-09T00:48:12;102641.19;;;9.95;81.22
38630;BME280;24384;51.988;4.644;2023-04-09T00:50:37;102636.78;;;9.97;81.58
38630;BME280;24384;51.988;4.644;2023-04-09T00:53:03;102635.94;;;9.92;81.43
38630;BME280;24384;51.988;4.644;2023-04-09T00:55:29;102637.69;;;9.93;82.85
38630;BME280;24384;51.988;4.644;2023-04-09T00:57:54;102638.56;;;9.95;82.23
38630;BME280;24384;51.988;4.644;2023-04-09T01:00:27;102636.78;;;9.94;82.16
38630;BME280;24384;51.988;4.644;2023-04-09T01:02:52;102641.19;;;9.98;82.59
38630;BME280;24384;51.988;4.644;2023-04-09T01:05:20;102638.56;;;9.92;83.10
38630;BME280;24384;51.988;4.644;2023-04-09T01:08:03;102635.94;;;9.92;82.41
38630;BME280;24384;51.988;4.644;2023-04-09T01:10:34;102628.88;;;9.93;83.32
38630;BME280;24384;51.988;4.644;2023-04-09T01:15:36;102628.88;;;9.88;83.39
38630;BME280;24384;51.988;4.644;2023-04-09T01:18:06;102628.03;;;9.88;82.90
38630;BME280;24384;51.988;4.644;2023-04-09T01:26:06;102625.41;;;9.83;82.35
38630;BME280;24384;51.988;4.644;2023-04-09T01:28:43;102628.88;;;9.91;82.67
38630;BME280;24384;51.988;4.644;2023-04-09T01:31:14;102635.94;;;9.77;82.81
38630;BME280;24384;51.988;4.644;2023-04-09T01:33:40;102630.69;;;9.67;82.99
38630;BME280;24384;51.988;4.644;2023-04-09T01:36:06;102635.09;;;9.56;81.92
38630;BME280;24384;51.988;4.644;2023-04-09T01:38:32;102637.72;;;9.36;80.70
38630;BME280;24384;51.988;4.644;2023-04-09T01:40:59;102638.59;;;9.44;82.19
38630;BME280;24384;51.988;4.644;2023-04-09T01:43:25;102636.81;;;9.26;82.10
38630;BME280;24384;51.988;4.644;2023-04-09T01:45:51;102633.31;;;9.23;81.30
38630;BME280;24384;51.988;4.644;2023-04-09T01:48:18;102633.31;;;9.21;83.75
38630;BME280;24384;51.988;4.644;2023-04-09T01:50:45;102638.56;;;9.27;83.95
38630;BME280;24384;51.988;4.644;2023-04-09T01:53:13;102635.97;;;9.49;85.08
38630;BME280;24384;51.988;4.644;2023-04-09T01:55:41;102637.72;;;9.65;82.75
38630;BME280;24384;51.988;4.644;2023-04-09T01:58:10;102632.44;;;9.70;83.11
38630;BME280;24384;51.988;4.644;2023-04-09T02:00:39;102640.34;;;9.84;82.61
38630;BME280;24384;51.988;4.644;2023-04-09T02:03:10;102635.06;;;9.81;83.29
38630;BME280;24384;51.988;4.644;2023-04-09T02:05:41;102642.97;;;9.87;83.79
38630;BME280;24384;51.988;4.644;2023-04-09T02:08:09;102639.44;;;9.94;83.33
38630;BME280;24384;51.988;4.644;2023-04-09T02:10:37;102639.44;;;9.91;83.15
38630;BME280;24384;51.988;4.644;2023-04-09T02:13:03;102634.13;;;10.02;83.18
38630;BME280;24384;51.988;4.644;2023-04-09T02:15:29;102638.56;;;9.92;81.79
38630;BME280;24384;51.988;4.644;2023-04-09T02:17:55;102632.41;;;9.98;81.84
38630;BME280;24384;51.988;4.644;2023-04-09T02:20:20;102634.16;;;9.91;82.17
38630;BME280;24384;51.988;4.644;2023-04-09T02:22:46;102635.06;;;9.93;81.94
38630;BME280;24384;51.988;4.644;2023-04-09T02:25:12;102635.03;;;9.98;82.03
38630;BME280;24384;51.988;4.644;2023-04-09T02:27:37;102623.59;;;9.96;82.02
38630;BME280;24384;51.988;4.644;2023-04-09T02:30:10;102620.94;;;10.03;81.44
38630;BME280;24384;51.988;4.644;2023-04-09T02:32:38;102621.88;;;9.89;82.10
38630;BME280;24384;51.988;4.644;2023-04-09T02:35:05;102610.41;;;9.99;81.81
38630;BME280;24384;51.988;4.644;2023-04-09T02:37:31;102611.31;;;10.01;81.32
38630;BME280;24384;51.988;4.644;2023-04-09T02:39:56;102611.31;;;9.96;81.78
38630;BME280;24384;51.988;4.644;2023-04-09T02:42:21;102613.06;;;9.88;81.67
38630;BME280;24384;51.988;4.644;2023-04-09T02:44:46;102609.56;;;9.98;81.25
38630;BME280;24384;51.988;4.644;2023-04-09T02:47:12;102605.13;;;10.08;80.69
38630;BME280;24384;51.988;4.644;2023-04-09T02:49:37;102602.50;;;9.99;80.67
38630;BME280;24384;51.988;4.644;2023-04-09T02:52:02;102605.16;;;9.94;80.43
38630;BME280;24384;51.988;4.644;2023-04-09T02:54:28;102596.41;;;9.91;80.76
38630;BME280;24384;51.988;4.644;2023-04-09T02:56:53;102600.78;;;9.93;80.36
38630;BME280;24384;51.988;4.644;2023-04-09T02:59:18;102606.91;;;10.03;79.44
38630;BME280;24384;51.988;4.644;2023-04-09T03:01:43;102605.16;;;9.93;79.43
38630;BME280;24384;51.988;4.644;2023-04-09T03:04:09;102598.16;;;9.95;78.96
38630;BME280;24384;51.988;4.644;2023-04-09T03:06:34;102599.00;;;9.98;78.87
38630;BME280;24384;51.988;4.644;2023-04-09T03:08:59;102605.16;;;10.00;79.34
38630;BME280;24384;51.988;4.644;2023-04-09T03:11:24;102591.94;;;10.10;78.99
38630;BME280;24384;51.988;4.644;2023-04-09T03:13:50;102601.66;;;10.00;79.49
38630;BME280;24384;51.988;4.644;2023-04-09T03:16:15;102594.59;;;9.99;79.11
38630;BME280;24384;51.988;4.644;2023-04-09T03:18:40;102607.78;;;9.93;79.04
38630;BME280;24384;51.988;4.644;2023-04-09T03:21:06;102593.75;;;9.92;79.32
38630;BME280;24384;51.988;4.644;2023-04-09T03:23:31;102597.25;;;9.91;79.45
38630;BME280;24384;51.988;4.644;2023-04-09T03:26:02;102589.34;;;9.90;79.49
38630;BME280;24384;51.988;4.644;2023-04-09T03:28:28;102582.34;;;9.98;79.43
38630;BME280;24384;51.988;4.644;2023-04-09T03:30:53;102588.44;;;10.04;79.42
38630;BME280;24384;51.988;4.644;2023-04-09T03:33:18;102577.91;;;10.01;79.69
38630;BME280;24384;51.988;4.644;2023-04-09T03:35:44;102577.03;;;10.09;79.92
38630;BME280;24384;51.988;4.644;2023-04-09T03:38:09;102572.63;;;10.08;79.58
38630;BME280;24384;51.988;4.644;2023-04-09T03:40:34;102569.94;;;10.20;78.70
38630;BME280;24384;51.988;4.644;2023-04-09T03:43:00;102570.84;;;10.13;78.67
38630;BME280;24384;51.988;4.644;2023-04-09T03:45:25;102566.47;;;10.13;79.23
38630;BME280;24384;51.988;4.644;2023-04-09T03:47:50;102563.84;;;10.12;78.54
38630;BME280;24384;51.988;4.644;2023-04-09T03:50:16;102562.94;;;10.10;79.27
38630;BME280;24384;51.988;4.644;2023-04-09T03:52:41;102570.84;;;10.10;79.77
38630;BME280;24384;51.988;4.644;2023-04-09T03:55:06;102562.06;;;10.15;79.77
38630;BME280;24384;51.988;4.644;2023-04-09T03:57:32;102558.56;;;10.13;79.81
38630;BME280;24384;51.988;4.644;2023-04-09T03:59:57;102565.56;;;10.11;79.27
38630;BME280;24384;51.988;4.644;2023-04-09T04:02:22;102563.84;;;10.06;79.76
38630;BME280;24384;51.988;4.644;2023-04-09T04:04:50;102562.06;;;10.11;79.49
38630;BME280;24384;51.988;4.644;2023-04-09T04:07:16;102570.00;;;10.00;80.23
38630;BME280;24384;51.988;4.644;2023-04-09T04:09:41;102564.75;;;9.95;80.16
38630;BME280;24384;51.988;4.644;2023-04-09T04:12:07;102558.59;;;10.01;79.95
38630;BME280;24384;51.988;4.644;2023-04-09T04:14:32;102562.97;;;10.03;80.04
38630;BME280;24384;51.988;4.644;2023-04-09T04:16:57;102556.84;;;9.95;79.19
38630;BME280;24384;51.988;4.644;2023-04-09T04:19:23;102561.25;;;9.90;79.94
38630;BME280;24384;51.988;4.644;2023-04-09T04:21:48;102566.50;;;10.01;79.59
38630;BME280;24384;51.988;4.644;2023-04-09T04:24:13;102560.34;;;9.97;79.65
38630;BME280;24384;51.988;4.644;2023-04-09T04:26:38;102557.72;;;9.94;80.22
38630;BME280;24384;51.988;4.644;2023-04-09T04:29:04;102556.88;;;9.89;79.75
38630;BME280;24384;51.988;4.644;2023-04-09T04:31:29;102557.75;;;9.82;80.68
38630;BME280;24384;51.988;4.644;2023-04-09T04:33:54;102551.59;;;9.89;78.97
38630;BME280;24384;51.988;4.644;2023-04-09T04:36:20;102552.44;;;9.91;79.03
38630;BME280;24384;51.988;4.644;2023-04-09T04:38:45;102555.09;;;9.85;79.38
38630;BME280;24384;51.988;4.644;2023-04-09T04:41:10;102549.84;;;9.86;79.74
38630;BME280;24384;51.988;4.644;2023-04-09T04:43:35;102546.31;;;9.94;79.97
38630;BME280;24384;51.988;4.644;2023-04-09T04:46:01;102559.47;;;10.00;79.60
38630;BME280;24384;51.988;4.644;2023-04-09T04:48:27;102558.59;;;9.99;80.38
38630;BME280;24384;51.988;4.644;2023-04-09T04:50:59;102560.31;;;10.05;79.98
38630;BME280;24384;51.988;4.644;2023-04-09T04:53:24;102564.75;;;9.98;80.71
38630;BME280;24384;51.988;4.644;2023-04-09T04:55:50;102563.84;;;10.07;79.89
38630;BME280;24384;51.988;4.644;2023-04-09T04:58:17;102564.72;;;10.08;79.85
38630;BME280;24384;51.988;4.644;2023-04-09T05:00:42;102568.25;;;10.00;80.14
38630;BME280;24384;51.988;4.644;2023-04-09T05:03:08;102570.88;;;10.02;80.48
38630;BME280;24384;51.988;4.644;2023-04-09T05:05:33;102579.66;;;10.09;80.02
38630;BME280;24384;51.988;4.644;2023-04-09T05:07:58;102573.50;;;10.08;80.04
38630;BME280;24384;51.988;4.644;2023-04-09T05:10:23;102574.41;;;10.07;80.70
38630;BME280;24384;51.988;4.644;2023-04-09T05:12:49;102580.53;;;10.03;80.08
38630;BME280;24384;51.988;4.644;2023-04-09T05:15:14;102575.25;;;10.12;79.98
38630;BME280;24384;51.988;4.644;2023-04-09T05:17:43;102577.91;;;10.04;80.77
38630;BME280;24384;51.988;4.644;2023-04-09T05:20:08;102577.94;;;9.97;80.40
38630;BME280;24384;51.988;4.644;2023-04-09T05:22:34;102577.06;;;9.99;81.32
38630;BME280;24384;51.988;4.644;2023-04-09T05:25:00;102578.78;;;9.99;80.76
38630;BME280;24384;51.988;4.644;2023-04-09T05:27:25;102584.97;;;9.99;80.56
38630;BME280;24384;51.988;4.644;2023-04-09T05:29:51;102575.25;;;10.06;80.35
38630;BME280;24384;51.988;4.644;2023-04-09T05:32:16;102578.78;;;10.05;80.75
38630;BME280;24384;51.988;4.644;2023-04-09T05:34:42;102580.53;;;10.06;81.08
38630;BME280;24384;51.988;4.644;2023-04-09T05:37:07;102574.38;;;10.10;80.84
38630;BME280;24384;51.988;4.644;2023-04-09T05:39:32;102577.91;;;10.09;81.42
38630;BME280;24384;51.988;4.644;2023-04-09T05:41:57;102578.78;;;10.07;81.54
38630;BME280;24384;51.988;4.644;2023-04-09T05:44:23;102577.00;;;10.13;81.05
38630;BME280;24384;51.988;4.644;2023-04-09T05:46:48;102573.47;;;10.16;80.50
38630;BME280;24384;51.988;4.644;2023-04-09T05:49:13;102582.28;;;10.10;81.33
38630;BME280;24384;51.988;4.644;2023-04-09T05:51:38;102581.41;;;10.10;81.46
38630;BME280;24384;51.988;4.644;2023-04-09T05:54:04;102574.38;;;10.15;80.56
38630;BME280;24384;51.988;4.644;2023-04-09T05:56:29;102589.28;;;10.17;80.33
38630;BME280;24384;51.988;4.644;2023-04-09T05:58:54;102580.50;;;10.17;80.93
38630;BME280;24384;51.988;4.644;2023-04-09T06:01:20;102578.72;;;10.24;80.31
38630;BME280;24384;51.988;4.644;2023-04-09T06:03:45;102582.22;;;10.27;79.99
38630;BME280;24384;51.988;4.644;2023-04-09T06:06:11;102581.34;;;10.22;80.59
38630;BME280;24384;51.988;4.644;2023-04-09T06:08:36;102594.56;;;10.13;81.04
38630;BME280;24384;51.988;4.644;2023-04-09T06:11:02;102592.78;;;10.23;80.68
38630;BME280;24384;51.988;4.644;2023-04-09T06:13:27;102586.59;;;10.31;80.40
38630;BME280;24384;51.988;4.644;2023-04-09T06:15:53;102582.22;;;10.30;80.34
38630;BME280;24384;51.988;4.644;2023-04-09T06:18:18;102581.34;;;10.25;79.86
38630;BME280;24384;51.988;4.644;2023-04-09T06:20:43;102576.06;;;10.28;80.47
38630;BME280;24384;51.988;4.644;2023-04-09T06:23:08;102579.59;;;10.27;79.29
38630;BME280;24384;51.988;4.644;2023-04-09T06:25:34;102584.88;;;10.23;79.63
38630;BME280;24384;51.988;4.644;2023-04-09T06:28:00;102585.72;;;10.31;78.88
38630;BME280;24384;51.988;4.644;2023-04-09T06:30:25;102591.03;;;10.25;79.18
38630;BME280;24384;51.988;4.644;2023-04-09T06:32:51;102590.16;;;10.23;79.90
38630;BME280;24384;51.988;4.644;2023-04-09T06:35:16;102598.03;;;10.30;80.28
38630;BME280;24384;51.988;4.644;2023-04-09T06:37:41;102593.63;;;10.29;80.29
38630;BME280;24384;51.988;4.644;2023-04-09T06:40:07;102592.78;;;10.33;79.67
38630;BME280;24384;51.988;4.644;2023-04-09T06:42:32;102605.06;;;10.28;79.30
38630;BME280;24384;51.988;4.644;2023-04-09T06:44:57;102603.34;;;10.33;79.34
38630;BME280;24384;51.988;4.644;2023-04-09T06:47:23;102602.44;;;10.36;78.96
38630;BME280;24384;51.988;4.644;2023-04-09T06:49:48;102596.28;;;10.37;79.45
38630;BME280;24384;51.988;4.644;2023-04-09T06:52:13;102607.69;;;10.37;79.53
38630;BME280;24384;51.988;4.644;2023-04-09T06:54:40;102605.94;;;10.39;79.53
38630;BME280;24384;51.988;4.644;2023-04-09T06:57:06;102609.47;;;10.37;79.45
38630;BME280;24384;51.988;4.644;2023-04-09T06:59:31;102600.66;;;10.41;79.76
38630;BME280;24384;51.988;4.644;2023-04-09T07:01:58;102599.78;;;10.39;79.58
38630;BME280;24384;51.988;4.644;2023-04-09T07:04:23;102598.88;;;10.45;79.21
38630;BME280;24384;51.988;4.644;2023-04-09T07:06:48;102598.88;;;10.48;78.69
38630;BME280;24384;51.988;4.644;2023-04-09T07:09:15;102599.75;;;10.42;79.02
38630;BME280;24384;51.988;4.644;2023-04-09T07:11:41;102602.41;;;10.44;78.50
38630;BME280;24384;51.988;4.644;2023-04-09T07:14:06;102598.91;;;10.38;78.18
38630;BME280;24384;51.988;4.644;2023-04-09T07:16:32;102604.22;;;10.25;78.95
38630;BME280;24384;51.988;4.644;2023-04-09T07:18:57;102604.19;;;10.31;78.95
38630;BME280;24384;51.988;4.644;2023-04-09T07:21:22;102601.56;;;10.29;79.41
38630;BME280;24384;51.988;4.644;2023-04-09T07:23:48;102596.28;;;10.29;79.46
38630;BME280;24384;51.988;4.644;2023-04-09T07:26:13;102604.19;;;10.32;78.86
38630;BME280;24384;51.988;4.644;2023-04-09T07:28:38;102599.78;;;10.36;78.44
38630;BME280;24384;51.988;4.644;2023-04-09T07:31:03;102602.44;;;10.22;79.03
38630;BME280;24384;51.988;4.644;2023-04-09T07:33:29;102598.06;;;10.21;78.71
38630;BME280;24384;51.988;4.644;2023-04-09T07:35:55;102598.06;;;10.24;78.77
38630;BME280;24384;51.988;4.644;2023-04-09T07:38:20;102591.03;;;10.21;78.77
38630;BME280;24384;51.988;4.644;2023-04-09T07:40:46;102596.34;;;10.08;79.48
38630;BME280;24384;51.988;4.644;2023-04-09T07:43:11;102606.00;;;10.13;78.04
38630;BME280;24384;51.988;4.644;2023-04-09T07:45:36;102606.00;;;10.21;78.11
38630;BME280;24384;51.988;4.644;2023-04-09T07:48:01;102594.50;;;10.30;77.99
38630;BME280;24384;51.988;4.644;2023-04-09T07:50:27;102600.69;;;10.24;78.96
38630;BME280;24384;51.988;4.644;2023-04-09T07:52:55;102606.94;;;9.92;77.13
38630;BME280;24384;51.988;4.644;2023-04-09T07:55:21;102614.78;;;10.17;77.08
38630;BME280;24384;51.988;4.644;2023-04-09T07:57:46;102606.88;;;10.17;78.15
38630;BME280;24384;51.988;4.644;2023-04-09T08:00:12;102606.03;;;10.09;78.88
38630;BME280;24384;51.988;4.644;2023-04-09T08:02:37;102610.38;;;10.11;78.43
38630;BME280;24384;51.988;4.644;2023-04-09T08:05:03;102606.84;;;10.21;79.12
38630;BME280;24384;51.988;4.644;2023-04-09T08:07:28;102608.59;;;10.26;78.32
38630;BME280;24384;51.988;4.644;2023-04-09T08:09:53;102596.28;;;10.26;78.71
38630;BME280;24384;51.988;4.644;2023-04-09T08:12:19;102597.16;;;10.28;76.98
38630;BME280;24384;51.988;4.644;2023-04-09T08:14:44;102595.41;;;10.27;76.67
38630;BME280;24384;51.988;4.644;2023-04-09T08:17:10;102598.94;;;10.20;78.03
38630;BME280;24384;51.988;4.644;2023-04-09T08:19:36;102598.97;;;10.17;76.83
38630;BME280;24384;51.988;4.644;2023-04-09T08:22:03;102601.66;;;9.95;77.05
38630;BME280;24384;51.988;4.644;2023-04-09T08:24:28;102609.53;;;10.08;76.88
38630;BME280;24384;51.988;4.644;2023-04-09T08:26:53;102599.00;;;10.00;78.53
38630;BME280;24384;51.988;4.644;2023-04-09T08:29:18;102607.78;;;10.02;78.39
38630;BME280;24384;51.988;4.644;2023-04-09T08:31:44;102608.66;;;10.10;78.11
38630;BME280;24384;51.988;4.644;2023-04-09T08:34:09;102615.69;;;10.05;78.11
38630;BME280;24384;51.988;4.644;2023-04-09T08:36:34;102613.06;;;9.93;78.28
38630;BME280;24384;51.988;4.644;2023-04-09T08:39:00;102610.44;;;9.91;79.73
38630;BME280;24384;51.988;4.644;2023-04-09T08:41:26;102619.25;;;9.85;79.11
38630;BME280;24384;51.988;4.644;2023-04-09T08:43:54;102621.88;;;9.96;78.85
38630;BME280;24384;51.988;4.644;2023-04-09T08:46:20;102622.75;;;9.97;79.64
38630;BME280;24384;51.988;4.644;2023-04-09T08:48:46;102627.13;;;9.99;80.24
38630;BME280;24384;51.988;4.644;2023-04-09T08:51:13;102626.25;;;9.99;78.87
38630;BME280;24384;51.988;4.644;2023-04-09T08:53:41;102623.59;;;10.07;78.69
38630;BME280;24384;51.988;4.644;2023-04-09T08:56:08;102620.09;;;9.97;78.47
38630;BME280;24384;51.988;4.644;2023-04-09T08:58:33;102613.97;;;9.93;77.82
38630;BME280;24384;51.988;4.644;2023-04-09T09:00:58;102619.25;;;9.92;78.15
38630;BME280;24384;51.988;4.644;2023-04-09T09:03:23;102607.78;;;9.94;77.98
38630;BME280;24384;51.988;4.644;2023-04-09T09:05:48;102613.94;;;10.09;77.88
38630;BME280;24384;51.988;4.644;2023-04-09T09:08:24;102613.97;;;9.99;78.55
38630;BME280;24384;51.988;4.644;2023-04-09T09:10:50;102613.94;;;10.06;77.76
38630;BME280;24384;51.988;4.644;2023-04-09T09:15:40;102620.03;;;10.20;78.09
38630;BME280;24384;51.988;4.644;2023-04-09T09:18:06;102623.56;;;10.17;77.78
38630;BME280;24384;51.988;4.644;2023-04-09T09:20:31;102618.31;;;10.10;77.07
38630;BME280;24384;51.988;4.644;2023-04-09T09:22:56;102622.72;;;10.09;76.91
38630;BME280;24384;51.988;4.644;2023-04-09T09:25:22;102628.81;;;10.24;77.46
38630;BME280;24384;51.988;4.644;2023-04-09T09:27:48;102614.75;;;10.37;75.44
38630;BME280;24384;51.988;4.644;2023-04-09T09:30:24;102610.28;;;10.50;76.33
38630;BME280;24384;51.988;4.644;2023-04-09T09:32:54;102607.63;;;10.53;76.08
38630;BME280;24384;51.988;4.644;2023-04-09T09:35:28;102616.53;;;10.24;74.87
38630;BME280;24384;51.988;4.644;2023-04-09T09:38:11;102603.22;;;10.55;75.54
38630;BME280;24384;51.988;4.644;2023-04-09T09:40:36;102599.66;;;10.65;75.61
38630;BME280;24384;51.988;4.644;2023-04-09T09:43:02;102592.50;;;10.83;74.95
38630;BME280;24384;51.988;4.644;2023-04-09T09:45:27;102580.25;;;10.74;74.96
38630;BME280;24384;51.988;4.644;2023-04-09T09:47:53;102589.88;;;10.83;74.68
38630;BME280;24384;51.988;4.644;2023-04-09T09:50:19;102581.78;;;11.06;75.96
38630;BME280;24384;51.988;4.644;2023-04-09T09:52:45;102579.94;;;11.20;74.23
38630;BME280;24384;51.988;4.644;2023-04-09T09:55:14;102578.31;;;11.01;72.40
38630;BME280;24384;51.988;4.644;2023-04-09T09:57:41;102576.44;;;11.15;72.88
38630;BME280;24384;51.988;4.644;2023-04-09T10:00:10;102575.19;;;11.59;72.05
38630;BME280;24384;51.988;4.644;2023-04-09T10:02:40;102559.00;;;11.92;71.25
38630;BME280;24384;51.988;4.644;2023-04-09T10:05:07;102554.84;;;12.45;69.29
38630;BME280;24384;51.988;4.644;2023-04-09T10:07:33;102549.59;;;13.03;67.12
38630;BME280;24384;51.988;4.644;2023-04-09T10:09:58;102556.84;;;13.46;65.55
38630;BME280;24384;51.988;4.644;2023-04-09T10:12:25;102554.78;;;13.62;65.02
38630;BME280;24384;51.988;4.644;2023-04-09T10:14:51;102551.94;;;13.21;64.30
38630;BME280;24384;51.988;4.644;2023-04-09T10:17:20;102551.75;;;13.32;65.43
38630;BME280;24384;51.988;4.644;2023-04-09T10:19:53;102540.53;;;13.16;66.45
38630;BME280;24384;51.988;4.644;2023-04-09T10:22:21;102543.81;;;13.31;65.38
38630;BME280;24384;51.988;4.644;2023-04-09T10:24:50;102542.63;;;13.50;63.63
38630;BME280;24384;51.988;4.644;2023-04-09T10:27:16;102541.16;;;13.31;64.84
38630;BME280;24384;51.988;4.644;2023-04-09T10:29:46;102539.53;;;13.23;65.10
38630;BME280;24384;51.988;4.644;2023-04-09T10:32:12;102539.88;;;13.56;64.25
38630;BME280;24384;51.988;4.644;2023-04-09T10:34:39;102537.19;;;13.05;66.18
38630;BME280;24384;51.988;4.644;2023-04-09T10:37:06;102538.38;;;12.85;65.92
38630;BME280;24384;51.988;4.644;2023-04-09T10:39:32;102531.81;;;13.08;65.91
38630;BME280;24384;51.988;4.644;2023-04-09T10:41:58;102534.38;;;13.14;65.43
38630;BME280;24384;51.988;4.644;2023-04-09T10:44:24;102535.91;;;13.29;66.45
38630;BME280;24384;51.988;4.644;2023-04-09T10:46:54;102526.88;;;13.42;65.78
38630;BME280;24384;51.988;4.644;2023-04-09T10:49:20;102515.78;;;14.12;63.23
38630;BME280;24384;51.988;4.644;2023-04-09T10:52:02;102515.81;;;14.11;61.97
38630;BME280;24384;51.988;4.644;2023-04-09T10:59:30;102507.09;;;15.20;60.32
38630;BME280;24384;51.988;4.644;2023-04-09T11:01:56;102503.13;;;15.35;58.13
38630;BME280;24384;51.988;4.644;2023-04-09T11:04:21;102498.72;;;16.28;57.51
38630;BME280;24384;51.988;4.644;2023-04-09T11:06:51;102491.50;;;15.72;58.10
38630;BME280;24384;51.988;4.644;2023-04-09T11:09:17;102483.16;;;15.86;57.82
38630;BME280;24384;51.988;4.644;2023-04-09T11:11:42;102488.53;;;16.42;58.10
38630;BME280;24384;51.988;4.644;2023-04-09T11:14:07;102477.88;;;15.84;57.11
38630;BME280;24384;51.988;4.644;2023-04-09T11:16:32;102484.19;;;15.47;57.39
38630;BME280;24384;51.988;4.644;2023-04-09T11:18:57;102473.31;;;15.88;57.72
38630;BME280;24384;51.988;4.644;2023-04-09T11:21:26;102468.34;;;16.07;59.43
38630;BME280;24384;51.988;4.644;2023-04-09T11:23:52;102470.78;;;16.43;57.63
38630;BME280;24384;51.988;4.644;2023-04-09T11:26:34;102477.47;;;16.83;55.85
38630;BME280;24384;51.988;4.644;2023-04-09T11:31:32;102472.25;;;16.23;55.52
38630;BME280;24384;51.988;4.644;2023-04-09T11:33:57;102477.53;;;14.98;58.76
38630;BME280;24384;51.988;4.644;2023-04-09T11:36:22;102465.28;;;15.89;59.68
38630;BME280;24384;51.988;4.644;2023-04-09T11:38:49;102463.84;;;16.37;55.77
38630;BME280;24384;51.988;4.644;2023-04-09T11:41:16;102455.97;;;17.14;53.25
38630;BME280;24384;51.988;4.644;2023-04-09T11:43:41;102450.16;;;17.28;54.88
38630;BME280;24384;51.988;4.644;2023-04-09T11:46:06;102457.88;;;17.61;53.59
38630;BME280;24384;51.988;4.644;2023-04-09T11:48:33;102458.28;;;17.50;55.25
38630;BME280;24384;51.988;4.644;2023-04-09T11:50:58;102454.09;;;17.43;53.59
38630;BME280;24384;51.988;4.644;2023-04-09T11:53:23;102455.66;;;17.49;52.71
38630;BME280;24384;51.988;4.644;2023-04-09T11:55:53;102470.63;;;16.74;53.97
38630;BME280;24384;51.988;4.644;2023-04-09T11:58:23;102451.47;;;16.63;54.95
38630;BME280;24384;51.988;4.644;2023-04-09T12:00:53;102451.72;;;17.59;52.20
38630;BME280;24384;51.988;4.644;2023-04-09T12:03:24;102454.69;;;17.75;55.24
38630;BME280;24384;51.988;4.644;2023-04-09T12:05:51;102439.56;;;18.66;51.56
38630;BME280;24384;51.988;4.644;2023-04-09T12:08:16;102435.31;;;18.61;49.60
38630;BME280;24384;51.988;4.644;2023-04-09T12:10:46;102447.19;;;18.32;50.19
38630;BME280;24384;51.988;4.644;2023-04-09T12:13:11;102436.84;;;18.45;50.67
38630;BME280;24384;51.988;4.644;2023-04-09T12:15:38;102441.91;;;18.31;53.27
38630;BME280;24384;51.988;4.644;2023-04-09T12:18:08;102430.97;;;19.41;51.02
38630;BME280;24384;51.988;4.644;2023-04-09T12:20:35;102438.88;;;20.03;47.43
38630;BME280;24384;51.988;4.644;2023-04-09T12:23:01;102434.03;;;19.92;46.98
38630;BME280;24384;51.988;4.644;2023-04-09T12:25:27;102439.28;;;20.32;48.04
38630;BME280;24384;51.988;4.644;2023-04-09T12:27:53;102428.09;;;19.06;47.41
38630;BME280;24384;51.988;4.644;2023-04-09T12:30:19;102423.16;;;18.08;51.05
38630;BME280;24384;51.988;4.644;2023-04-09T12:32:45;102430.78;;;17.48;51.04
38630;BME280;24384;51.988;4.644;2023-04-09T12:35:12;102433.25;;;17.29;52.13
38630;BME280;24384;51.988;4.644;2023-04-09T12:37:37;102448.50;;;17.26;53.26
38630;BME280;24384;51.988;4.644;2023-04-09T12:40:03;102435.25;;;17.48;52.75
38630;BME280;24384;51.988;4.644;2023-04-09T12:42:29;102452.28;;;16.65;53.68
38630;BME280;24384;51.988;4.644;2023-04-09T12:44:54;102453.72;;;16.49;53.27
38630;BME280;24384;51.988;4.644;2023-04-09T12:47:21;102439.06;;;16.62;55.75
38630;BME280;24384;51.988;4.644;2023-04-09T12:49:46;102429.84;;;17.73;56.11
38630;BME280;24384;51.988;4.644;2023-04-09T12:52:15;102422.22;;;17.87;50.75
38630;BME280;24384;51.988;4.644;2023-04-09T12:54:42;102439.22;;;17.36;52.13
38630;BME280;24384;51.988;4.644;2023-04-09T12:57:08;102438.75;;;18.64;49.11
38630;BME280;24384;51.988;4.644;2023-04-09T12:59:33;102441.47;;;19.85;45.73
38630;BME280;24384;51.988;4.644;2023-04-09T13:01:58;102442.16;;;19.70;45.46
38630;BME280;24384;51.988;4.644;2023-04-09T13:04:23;102427.59;;;19.96;47.53
38630;BME280;24384;51.988;4.644;2023-04-09T13:06:48;102430.69;;;19.08;49.77